Latest Weather Observations for Ulladulla

IDN60801

Issued at 5:32 pm EST Saturday 1 August 2015 (issued every 30 minutes, with the page automatically refreshed every 10 minutes)

About weather observations | Map of weather stations | Latest weather observations for NSW | Other Formats
Station Details ID: 069138 Name: ULLADULLA AWS Lat: -35.36 Lon: 150.48 Height: 35.7 m
Data from the previous 72 hours. | See also: Recent months at Ulladulla
Date/Time
EST
Temp
°C
App
Temp
°C
Dew
Point
Rel
Hum
%
Delta-T
°C
Wind Press
QNH
hPa
Press
MSL
hPa
Rain
since 9 am
mm
Dir
 
Spd
km/h
Gust
km/h
Spd
kts
Gust
kts
01/05:30pm 18.0 15.6 6.8 48 5.6 WNW 9 20 5 11 1013.9 1013.9 0.0
01/05:00pm 18.8 15.0 6.0 43 6.3 WNW 15 20 8 11 1013.0 1013.0 0.0
01/04:30pm 19.2 16.0 4.9 39 6.9 NNW 11 17 6 9 1012.4 1012.4 0.0
01/04:00pm 20.1 16.9 5.0 37 7.4 NW 11 17 6 9 1012.0 1012.0 0.0
01/03:30pm 20.9 18.1 5.3 36 7.7 WNW 9 19 5 10 1012.1 1012.1 0.0
01/03:00pm 20.7 17.5 5.1 36 7.7 W 11 20 6 11 1012.5 1012.5 0.0
01/02:30pm 19.6 15.2 4.9 38 7.1 NW 17 28 9 15 1012.6 1012.6 0.0
01/02:00pm 19.8 15.3 4.3 36 7.5 NW 17 37 9 20 1012.1 1012.1 0.0
01/01:30pm 19.1 15.2 5.2 40 6.8 NW 15 24 8 13 1011.9 1011.9 0.0
01/01:00pm 18.5 14.5 6.7 46 5.9 NNW 17 26 9 14 1012.0 1012.0 0.0
01/12:30pm 18.9 14.5 6.4 44 6.2 N 19 33 10 18 1012.3 1012.3 0.0
01/12:00pm 18.3 14.1 7.4 49 5.5 N 19 30 10 16 1012.8 1012.8 0.0
01/11:30am 17.1 12.7 7.5 53 4.8 N 20 32 11 17 1013.7 1013.7 0.0
01/11:00am 16.8 12.7 6.0 49 5.3 N 17 28 9 15 1014.4 1014.4 0.0
01/10:30am 16.5 13.5 5.8 49 5.2 N 11 20 6 11 1015.1 1015.1 0.0
01/10:00am 16.1 11.2 5.1 48 5.2 NW 20 33 11 18 1015.3 1015.3 0.0
01/09:30am 15.2 9.4 4.6 49 5.0 NW 24 35 13 19 1014.9 1014.9 0.0
01/09:00am 15.1 8.1 4.2 48 5.0 NW 30 50 16 27 1014.3 1014.3 0.0
01/08:51am 15.1 8.1 4.2 48 5.0 NW 30 50 16 27 1014.4 1014.4 0.0
01/08:30am 15.1 8.5 4.2 48 5.0 NW 28 44 15 24 1014.8 1014.8 0.0
01/08:00am 15.4 9.1 3.9 46 5.3 NW 26 41 14 22 1015.6 1015.6 0.0
01/07:30am 15.8 10.8 4.5 47 5.3 WNW 20 32 11 17 1015.5 1015.5 0.0
01/07:00am 15.9 10.9 4.6 47 5.3 WNW 20 33 11 18 1014.6 1014.6 0.0
01/06:30am 15.7 9.9 4.4 47 5.3 WNW 24 54 13 29 1014.5 1014.5 0.0
01/06:07am 15.6 9.1 4.9 49 5.0 WNW 28 54 15 29 1013.9 1013.9 0.0
01/06:00am 15.7 10.4 5.0 49 5.1 WNW 22 39 12 21 1013.9 1013.9 0.0
01/05:59am 15.7 10.0 5.0 49 5.1 WNW 24 39 13 21 1013.9 1013.9 0.0
01/05:30am 13.7 11.6 6.6 62 3.4 NW 7 13 4 7 1014.1 1014.1 0.0
01/05:00am 13.5 10.2 6.6 63 3.3 N 13 28 7 15 1014.1 1014.1 0.0
01/04:30am 13.1 9.7 7.5 69 2.7 N 15 28 8 15 1014.3 1014.3 0.0
01/04:00am 12.4 9.6 7.1 70 2.6 NNW 11 26 6 14 1015.0 1015.0 0.0
01/03:30am 11.6 9.3 5.9 68 2.7 N 7 15 4 8 1015.6 1015.6 0.0
01/03:00am 12.5 8.9 6.8 68 2.7 N 15 20 8 11 1016.2 1016.2 0.0
01/02:30am 12.3 9.4 6.6 68 2.7 N 11 20 6 11 1016.7 1016.7 0.0
01/02:00am 12.3 8.9 5.9 65 3.0 NNW 13 22 7 12 1017.3 1017.3 0.0
01/01:30am 11.6 8.2 5.7 67 2.7 N 13 20 7 11 1017.3 1017.3 0.0
01/01:00am 12.1 8.5 6.8 70 2.5 N 15 24 8 13 1017.8 1017.8 0.0
01/12:30am 12.1 8.7 5.9 66 2.9 N 13 20 7 11 1017.8 1017.8 0.0
01/12:00am 12.4 9.5 6.7 68 2.7 NNW 11 20 6 11 1018.6 1018.6 0.0
 
Date/Time
EST
Temp
°C
App
Temp
°C
Dew
Point
Rel
Hum
%
Delta-T
°C
Wind Press
QNH
hPa
Press
MSL
hPa
Rain
since 9 am
mm
Dir
 
Spd
km/h
Gust
km/h
Spd
kts
Gust
kts
31/11:30pm 12.3 9.9 6.8 69 2.6 NNW 9 17 5 9 1019.2 1019.2 0.0
31/11:00pm 11.0 8.9 8.1 82 1.4 N 9 13 5 7 1019.8 1019.8 0.0
31/10:30pm 11.7 10.1 8.7 82 1.5 N 7 13 4 7 1020.1 1020.1 0.0
31/10:00pm 11.1 9.2 7.6 79 1.7 NNW 7 11 4 6 1020.3 1020.3 0.0
31/09:30pm 10.8 9.0 7.9 82 1.4 NNW 7 11 4 6 1020.5 1020.5 0.0
31/09:00pm 11.2 9.1 8.2 82 1.5 NNW 9 13 5 7 1020.4 1020.4 0.0
31/08:30pm 11.2 9.6 8.6 84 1.3 NNW 7 11 4 6 1020.3 1020.3 0.0
31/08:00pm 10.9 9.2 8.5 85 1.2 NW 7 9 4 5 1020.2 1020.2 0.0
31/07:30pm 11.7 10.2 8.6 81 1.5 N 6 7 3 4 1020.1 1020.1 0.0
31/07:00pm 12.5 11.0 9.0 79 1.8 NNW 7 13 4 7 1020.4 1020.4 0.0
31/06:30pm 13.7 12.0 9.7 77 2.1 NNW 9 17 5 9 1020.1 1020.1 0.0
31/06:00pm 13.7 10.6 9.0 73 2.4 NE 15 20 8 11 1019.9 1019.9 0.0
31/05:30pm 13.7 11.4 9.0 73 2.4 NE 11 20 6 11 1019.9 1019.9 0.0
31/05:00pm 13.5 11.9 8.6 72 2.5 NE 7 15 4 8 1019.9 1019.9 0.0
31/04:30pm 13.7 12.0 8.5 71 2.6 NE 7 11 4 6 1019.5 1019.5 0.0
31/04:00pm 14.4 12.9 8.4 67 3.0 ENE 6 11 3 6 1019.5 1019.5 0.0
31/03:30pm 14.8 13.4 8.7 67 3.1 NE 6 9 3 5 1019.8 1019.8 0.0
31/03:00pm 14.9 13.4 8.6 66 3.2 E 6 13 3 7 1019.7 1019.7 0.0
31/02:30pm 15.4 13.8 8.9 65 3.3 E 7 11 4 6 1019.5 1019.5 0.0
31/02:00pm 15.3 13.3 8.8 65 3.3 SE 9 15 5 8 1019.7 1019.7 0.0
31/01:30pm 15.6 13.8 9.3 66 3.3 SE 9 17 5 9 1019.7 1019.7 0.0
31/01:00pm 15.6 13.7 9.1 65 3.3 SE 9 17 5 9 1019.8 1019.8 0.0
31/12:30pm 15.5 12.9 9.4 67 3.2 SSE 13 20 7 11 1020.0 1020.0 0.0
31/12:00pm 15.3 11.9 7.8 61 3.7 SSE 15 20 8 11 1020.4 1020.4 0.0
31/11:30am 14.7 11.6 7.3 61 3.6 S 13 24 7 13 1020.6 1020.6 0.0
31/11:00am 16.4 14.7 5.7 49 5.1 WSW 4 6 2 3 1020.5 1020.5 0.0
31/10:30am 17.2 14.4 5.2 45 5.8 W 9 17 5 9 1020.5 1020.5 0.0
31/10:00am 16.9 14.6 4.9 45 5.7 WSW 6 13 3 7 1020.3 1020.3 0.0
31/09:30am 16.0 13.2 5.3 49 5.1 WSW 9 17 5 9 1020.1 1020.1 0.0
31/09:00am 14.9 12.3 4.3 49 4.9 WNW 7 17 4 9 1019.9 1019.9 0.0
31/08:30am 13.8 10.5 4.4 53 4.3 WNW 11 22 6 12 1019.8 1019.8 0.0
31/08:00am 13.0 8.8 3.7 53 4.2 WNW 15 24 8 13 1019.6 1019.6 0.0
31/07:30am 12.4 8.5 3.4 54 4.0 WNW 13 20 7 11 1019.1 1019.1 0.0
31/07:00am 12.4 8.1 3.1 53 4.1 WNW 15 24 8 13 1018.6 1018.6 0.0
31/06:30am 12.1 8.6 3.3 55 3.9 WNW 11 24 6 13 1018.3 1018.3 0.0
31/06:00am 11.9 7.6 3.4 56 3.8 W 15 28 8 15 1017.6 1017.6 0.0
31/05:30am 12.0 7.0 3.5 56 3.8 WNW 19 28 10 15 1016.8 1016.8 0.0
31/05:00am 11.9 6.9 3.4 56 3.8 NW 19 28 10 15 1017.3 1017.3 0.0
31/04:30am 11.9 7.6 3.4 56 3.8 NW 15 24 8 13 1017.2 1017.2 0.0
31/04:00am 12.6 8.3 3.0 52 4.2 WNW 15 32 8 17 1016.9 1016.9 0.0
31/03:30am 13.0 7.9 3.1 51 4.4 NW 19 33 10 18 1016.9 1016.9 0.0
31/03:00am 13.3 8.6 3.4 51 4.4 WNW 17 32 9 17 1017.0 1017.0 0.0
31/02:30am 13.3 8.2 3.1 50 4.5 W 19 32 10 17 1017.3 1017.3 0.0
31/02:00am 13.5 7.4 3.0 49 4.7 W 24 46 13 25 1017.2 1017.2 0.0
31/01:30am 13.8 7.3 2.4 46 5.0 WNW 26 48 14 26 1016.7 1016.7 0.0
31/01:23am 13.8 6.8 2.1 45 5.1 WNW 28 48 15 26 1016.6 1016.6 0.0
31/01:00am 13.8 7.9 1.8 44 5.2 NW 22 35 12 19 1016.3 1016.3 0.0
31/12:30am 14.1 9.3 2.4 45 5.2 NW 17 28 9 15 1016.4 1016.4 0.0
31/12:00am 14.3 7.7 2.2 44 5.3 NW 26 50 14 27 1016.1 1016.1 0.0
 
Date/Time
EST
Temp
°C
App
Temp
°C
Dew
Point
Rel
Hum
%
Delta-T
°C
Wind Press
QNH
hPa
Press
MSL
hPa
Rain
since 9 am
mm
Dir
 
Spd
km/h
Gust
km/h
Spd
kts
Gust
kts
30/11:30pm 14.1 10.2 1.4 42 5.5 NW 11 28 6 15 1016.6 1016.6 0.0
30/11:00pm 14.1 10.6 1.1 41 5.6 W 9 22 5 12 1017.2 1017.2 0.0
30/10:30pm 14.4 9.3 0.6 39 5.9 WNW 17 33 9 18 1016.9 1016.9 0.0
30/10:00pm 13.8 10.8 1.1 42 5.4 SW 6 11 3 6 1016.5 1016.5 0.0
30/09:30pm 13.8 11.4 -0.6 37 5.9 NW 2 9 1 5 1016.3 1016.3 0.0
30/09:00pm 14.1 10.9 -0.4 37 6.0 WSW 6 13 3 7 1016.4 1016.4 0.0
30/08:30pm 14.2 11.9 0.1 38 5.9 SSE 2 6 1 3 1015.9 1015.9 0.0
30/08:00pm 14.8 11.0 -0.9 34 6.5 NNW 9 17 5 9 1015.0 1015.0 0.0
30/07:30pm 14.6 11.1 -1.5 33 6.6 NW 7 20 4 11 1016.2 1016.2 0.0
30/07:00pm 14.9 9.8 -2.1 31 6.8 NW 15 30 8 16 1016.3 1016.3 0.0
30/06:30pm 14.8 10.1 -1.7 32 6.7 NW 13 32 7 17 1016.6 1016.6 0.0
30/06:00pm 14.9 9.9 -1.2 33 6.6 NW 15 33 8 18 1016.7 1016.7 0.0
30/05:30pm 15.1 10.4 -1.9 31 6.9 NW 13 28 7 15 1016.6 1016.6 0.0
30/05:00pm 15.3 10.6 -1.7 31 6.9 NW 13 24 7 13 1016.3 1016.3 0.0
30/04:30pm 15.2 11.8 -0.9 33 6.7 NW 7 15 4 8 1016.4 1016.4 0.0
30/04:00pm 15.9 11.5 0.1 34 6.7 NW 13 30 7 16 1016.4 1016.4 0.0
30/03:30pm 16.7 15.6 5.0 46 5.6 CALM 0 2 0 1 1016.9 1016.9 0.0
30/03:00pm 16.7 13.9 2.0 37 6.6 NW 6 15 3 8 1017.6 1017.6 0.0
30/02:30pm 17.5 15.2 2.7 37 6.8 SSE 4 7 2 4 1017.7 1017.7 0.0
30/02:00pm 18.3 14.9 1.8 33 7.4 NW 9 17 5 9 1018.3 1018.3 0.0
30/01:30pm 17.9 14.0 1.4 33 7.4 N 11 19 6 10 1018.8 1018.8 0.0
30/01:00pm 17.0 12.4 1.8 36 6.8 NW 15 22 8 12 1019.3 1019.3 0.0
30/12:30pm 17.8 13.2 1.7 34 7.2 NW 15 26 8 14 1019.8 1019.8 0.0
30/12:00pm 17.7 13.6 2.1 35 7.0 WNW 13 22 7 12 1020.4 1020.4 0.0
30/11:30am 16.9 12.8 2.5 38 6.5 NW 13 22 7 12 1020.7 1020.7 0.0
30/11:00am 16.0 12.6 2.1 39 6.2 NW 9 17 5 9 1021.3 1021.4 0.0
30/10:30am 15.3 12.4 4.7 49 5.0 NNW 9 17 5 9 1022.2 1022.3 0.0
30/10:00am 14.2 10.8 6.1 58 3.9 N 13 22 7 12 1022.8 1022.9 0.0
30/09:30am 12.7 9.6 5.6 62 3.3 N 11 19 6 10 1023.2 1023.3 0.0
30/09:00am 12.4 9.3 5.6 63 3.2 N 11 20 6 11 1023.8 1023.9 0.0
30/08:30am 11.5 8.0 5.4 66 2.8 N 13 22 7 12 1024.1 1024.2 0.0
30/08:00am 10.6 8.3 5.6 71 2.3 NNW 7 11 4 6 1024.4 1024.5 0.0
30/07:30am 9.7 6.8 4.7 71 2.2 N 9 17 5 9 1024.4 1024.5 0.0
30/07:00am 9.2 6.3 4.8 74 2.0 N 9 13 5 7 1024.2 1024.3 0.0
30/06:30am 9.6 7.0 4.4 70 2.3 NNW 7 9 4 5 1024.3 1024.4 0.0
30/06:00am 9.8 6.9 4.8 71 2.2 NNW 9 13 5 7 1024.5 1024.6 0.0
30/05:30am 10.7 8.0 5.7 71 2.3 N 9 17 5 9 1024.4 1024.5 0.0
30/05:00am 9.7 7.6 5.7 76 1.8 NNW 6 11 3 6 1024.6 1024.7 0.0
30/04:30am 10.8 7.8 5.8 71 2.3 N 11 15 6 8 1025.0 1025.1 0.0
30/04:00am 9.5 7.3 5.5 76 1.8 NNW 6 9 3 5 1025.1 1025.2 0.0
30/03:30am 9.9 7.0 4.9 71 2.3 NNW 9 17 5 9 1025.5 1025.6 0.0
30/03:00am 9.1 6.3 3.3 67 2.5 NNW 7 15 4 8 1025.5 1025.6 0.0
30/02:30am 9.0 6.5 4.0 71 2.2 N 6 9 3 5 1026.3 1026.3 0.0
30/02:00am 9.0 6.5 3.6 69 2.3 NNW 6 11 3 6 1026.8 1026.8 0.0
30/01:30am 8.8 6.4 4.2 73 2.0 NNW 6 9 3 5 1027.0 1027.0 0.0
30/01:00am 10.2 8.3 6.5 78 1.7 NNW 6 13 3 7 1027.2 1027.2 0.0
30/12:30am 10.2 8.0 6.0 75 1.9 N 7 11 4 6 1027.9 1027.9 0.0
30/12:00am 9.8 8.1 5.8 76 1.8 N 4 6 2 3 1028.4 1028.4 0.0
 
Date/Time
EST
Temp
°C
App
Temp
°C
Dew
Point
Rel
Hum
%
Delta-T
°C
Wind Press
QNH
hPa
Press
MSL
hPa
Rain
since 9 am
mm
Dir
 
Spd
km/h
Gust
km/h
Spd
kts
Gust
kts
29/11:30pm 9.4 7.3 5.9 79 1.6 N 6 7 3 4 1028.6 1028.6 0.0
29/11:00pm 9.9 8.0 6.6 80 1.5 NNW 6 9 3 5 1028.6 1028.6 0.0
29/10:30pm 10.4 8.5 6.7 78 1.7 NNW 6 7 3 4 1028.6 1028.6 0.0
29/10:00pm 11.3 9.0 7.6 78 1.8 N 9 13 5 7 1028.9 1028.9 0.0
29/09:30pm 11.2 9.3 7.5 78 1.8 NNW 7 11 4 6 1029.4 1029.4 0.0
29/09:00pm 11.1 8.7 7.2 77 1.9 NNW 9 13 5 7 1029.7 1029.7 0.0
29/08:30pm 10.7 8.3 7.0 78 1.8 NNW 9 15 5 8 1029.9 1029.9 0.0
29/08:00pm 11.1 9.1 7.0 76 1.9 NNW 7 11 4 6 1029.7 1029.7 0.0
29/07:30pm 11.7 10.1 7.8 77 1.9 N 6 9 3 5 1029.6 1029.6 0.0
29/07:00pm 12.1 9.9 7.8 75 2.1 N 9 13 5 7 1029.8 1029.8 0.0
29/06:30pm 12.8 10.3 8.1 73 2.3 N 11 17 6 9 1029.9 1029.9 0.0
29/06:00pm 13.2 10.8 8.5 73 2.3 N 11 20 6 11 1029.5 1029.5 0.0

Other Formats:

Comma delimited format used in spreadsheet applications
http://www.bom.gov.au/fwo/IDN60801/IDN60801.94938.axf

JavaScript Object Notation format (JSON) in row-major order
http://www.bom.gov.au/fwo/IDN60801/IDN60801.94938.json